sensor_id;sensor_type;location;lat;lon;timestamp;P1;durP1;ratioP1;P2;durP2;ratioP2
22768;SDS011;13001;51.968;5.918;2023-05-10T00:00:56;374.37;;;346.93;;
22768;SDS011;13001;51.968;5.918;2023-05-10T00:03:24;363.87;;;336.57;;
22768;SDS011;13001;51.968;5.918;2023-05-10T00:05:51;370.60;;;342.83;;
22768;SDS011;13001;51.968;5.918;2023-05-10T00:08:18;363.13;;;336.33;;
22768;SDS011;13001;51.968;5.918;2023-05-10T00:10:45;376.55;;;352.10;;
22768;SDS011;13001;51.968;5.918;2023-05-10T00:13:13;405.98;;;379.65;;
22768;SDS011;13001;51.968;5.918;2023-05-10T00:15:40;569.88;;;528.45;;
22768;SDS011;13001;51.968;5.918;2023-05-10T00:18:07;702.10;;;647.73;;
22768;SDS011;13001;51.968;5.918;2023-05-10T00:20:34;747.10;;;690.05;;
22768;SDS011;13001;51.968;5.918;2023-05-10T00:23:02;749.03;;;691.10;;
22768;SDS011;13001;51.968;5.918;2023-05-10T00:25:29;731.60;;;675.50;;
22768;SDS011;13001;51.968;5.918;2023-05-10T00:27:56;696.12;;;645.23;;
22768;SDS011;13001;51.968;5.918;2023-05-10T00:30:23;646.77;;;602.10;;
22768;SDS011;13001;51.968;5.918;2023-05-10T00:32:51;625.20;;;582.45;;
22768;SDS011;13001;51.968;5.918;2023-05-10T00:35:18;625.85;;;582.70;;
22768;SDS011;13001;51.968;5.918;2023-05-10T00:37:45;600.00;;;559.07;;
22768;SDS011;13001;51.968;5.918;2023-05-10T00:40:13;595.60;;;555.40;;
22768;SDS011;13001;51.968;5.918;2023-05-10T00:42:40;594.42;;;553.08;;
22768;SDS011;13001;51.968;5.918;2023-05-10T00:45:07;589.08;;;548.35;;
22768;SDS011;13001;51.968;5.918;2023-05-10T00:47:35;579.98;;;540.12;;
22768;SDS011;13001;51.968;5.918;2023-05-10T00:50:02;596.80;;;555.85;;
22768;SDS011;13001;51.968;5.918;2023-05-10T00:52:31;592.70;;;551.75;;
22768;SDS011;13001;51.968;5.918;2023-05-10T00:54:58;588.22;;;548.25;;
22768;SDS011;13001;51.968;5.918;2023-05-10T00:57:25;602.28;;;561.00;;
22768;SDS011;13001;51.968;5.918;2023-05-10T00:59:53;604.62;;;562.70;;
22768;SDS011;13001;51.968;5.918;2023-05-10T01:02:20;613.08;;;571.03;;
22768;SDS011;13001;51.968;5.918;2023-05-10T01:04:47;615.33;;;573.07;;
22768;SDS011;13001;51.968;5.918;2023-05-10T01:07:16;603.92;;;562.38;;
22768;SDS011;13001;51.968;5.918;2023-05-10T01:09:43;615.83;;;572.80;;
22768;SDS011;13001;51.968;5.918;2023-05-10T01:12:10;631.47;;;587.38;;
22768;SDS011;13001;51.968;5.918;2023-05-10T01:14:38;618.50;;;575.62;;
22768;SDS011;13001;51.968;5.918;2023-05-10T01:17:06;630.42;;;586.05;;
22768;SDS011;13001;51.968;5.918;2023-05-10T01:19:35;625.92;;;582.50;;
22768;SDS011;13001;51.968;5.918;2023-05-10T01:22:26;624.15;;;580.92;;
22768;SDS011;13001;51.968;5.918;2023-05-10T01:30:08;625.00;;;581.80;;
22768;SDS011;13001;51.968;5.918;2023-05-10T01:32:41;636.07;;;591.83;;
22768;SDS011;13001;51.968;5.918;2023-05-10T01:37:59;651.20;;;605.25;;
22768;SDS011;13001;51.968;5.918;2023-05-10T01:40:30;641.25;;;596.33;;
22768;SDS011;13001;51.968;5.918;2023-05-10T01:42:55;637.05;;;592.80;;
22768;SDS011;13001;51.968;5.918;2023-05-10T01:45:31;638.85;;;594.05;;
22768;SDS011;13001;51.968;5.918;2023-05-10T01:50:33;625.22;;;582.00;;
22768;SDS011;13001;51.968;5.918;2023-05-10T01:53:01;631.02;;;586.55;;
22768;SDS011;13001;51.968;5.918;2023-05-10T01:55:30;623.75;;;580.03;;
22768;SDS011;13001;51.968;5.918;2023-05-10T01:58:08;629.08;;;584.95;;
22768;SDS011;13001;51.968;5.918;2023-05-10T02:00:32;626.82;;;583.23;;
22768;SDS011;13001;51.968;5.918;2023-05-10T02:03:01;630.73;;;586.88;;
22768;SDS011;13001;51.968;5.918;2023-05-10T02:05:29;621.77;;;578.67;;
22768;SDS011;13001;51.968;5.918;2023-05-10T02:07:56;619.83;;;577.02;;
22768;SDS011;13001;51.968;5.918;2023-05-10T02:10:25;616.00;;;572.87;;
22768;SDS011;13001;51.968;5.918;2023-05-10T02:12:53;610.85;;;568.65;;
22768;SDS011;13001;51.968;5.918;2023-05-10T02:15:22;605.90;;;564.02;;
22768;SDS011;13001;51.968;5.918;2023-05-10T02:17:49;597.63;;;556.03;;
22768;SDS011;13001;51.968;5.918;2023-05-10T02:20:17;594.47;;;553.38;;
22768;SDS011;13001;51.968;5.918;2023-05-10T02:22:45;593.50;;;551.92;;
22768;SDS011;13001;51.968;5.918;2023-05-10T02:25:14;592.80;;;552.40;;
22768;SDS011;13001;51.968;5.918;2023-05-10T02:27:42;593.90;;;552.58;;
22768;SDS011;13001;51.968;5.918;2023-05-10T02:30:10;594.58;;;553.70;;
22768;SDS011;13001;51.968;5.918;2023-05-10T02:32:38;592.10;;;551.13;;
22768;SDS011;13001;51.968;5.918;2023-05-10T02:35:06;577.58;;;538.10;;
22768;SDS011;13001;51.968;5.918;2023-05-10T02:37:34;584.58;;;543.85;;
22768;SDS011;13001;51.968;5.918;2023-05-10T02:40:03;589.90;;;549.25;;
22768;SDS011;13001;51.968;5.918;2023-05-10T02:42:32;587.67;;;547.30;;
22768;SDS011;13001;51.968;5.918;2023-05-10T02:45:01;594.23;;;552.35;;
22768;SDS011;13001;51.968;5.918;2023-05-10T02:47:29;583.00;;;542.40;;
22768;SDS011;13001;51.968;5.918;2023-05-10T02:49:56;579.15;;;539.35;;
22768;SDS011;13001;51.968;5.918;2023-05-10T02:52:25;575.35;;;535.35;;
22768;SDS011;13001;51.968;5.918;2023-05-10T02:54:54;566.48;;;527.30;;
22768;SDS011;13001;51.968;5.918;2023-05-10T02:57:22;552.80;;;513.87;;
22768;SDS011;13001;51.968;5.918;2023-05-10T02:59:50;559.22;;;520.15;;
22768;SDS011;13001;51.968;5.918;2023-05-10T03:02:17;557.52;;;518.37;;
22768;SDS011;13001;51.968;5.918;2023-05-10T03:04:45;560.00;;;520.38;;
22768;SDS011;13001;51.968;5.918;2023-05-10T03:07:12;571.05;;;530.48;;
22768;SDS011;13001;51.968;5.918;2023-05-10T03:09:39;550.87;;;511.55;;
22768;SDS011;13001;51.968;5.918;2023-05-10T03:12:11;553.08;;;514.23;;
22768;SDS011;13001;51.968;5.918;2023-05-10T03:14:48;557.15;;;518.37;;
22768;SDS011;13001;51.968;5.918;2023-05-10T03:17:30;546.63;;;508.25;;
22768;SDS011;13001;51.968;5.918;2023-05-10T03:19:58;562.48;;;522.45;;
22768;SDS011;13001;51.968;5.918;2023-05-10T03:22:37;549.05;;;510.50;;
22768;SDS011;13001;51.968;5.918;2023-05-10T03:25:06;544.92;;;506.17;;
22768;SDS011;13001;51.968;5.918;2023-05-10T03:27:35;547.13;;;508.30;;
22768;SDS011;13001;51.968;5.918;2023-05-10T03:30:03;535.60;;;497.17;;
22768;SDS011;13001;51.968;5.918;2023-05-10T03:32:32;525.50;;;488.50;;
22768;SDS011;13001;51.968;5.918;2023-05-10T03:35:05;532.70;;;494.95;;
22768;SDS011;13001;51.968;5.918;2023-05-10T03:37:29;526.87;;;489.60;;
22768;SDS011;13001;51.968;5.918;2023-05-10T03:39:57;518.30;;;481.60;;
22768;SDS011;13001;51.968;5.918;2023-05-10T03:42:24;509.13;;;473.00;;
22768;SDS011;13001;51.968;5.918;2023-05-10T03:44:51;507.23;;;471.25;;
22768;SDS011;13001;51.968;5.918;2023-05-10T03:47:19;518.75;;;482.32;;
22768;SDS011;13001;51.968;5.918;2023-05-10T03:49:46;512.23;;;476.37;;
22768;SDS011;13001;51.968;5.918;2023-05-10T03:52:13;492.85;;;457.92;;
22768;SDS011;13001;51.968;5.918;2023-05-10T03:54:40;499.77;;;463.43;;
22768;SDS011;13001;51.968;5.918;2023-05-10T03:57:08;500.87;;;465.38;;
22768;SDS011;13001;51.968;5.918;2023-05-10T03:59:35;482.38;;;448.07;;
22768;SDS011;13001;51.968;5.918;2023-05-10T04:02:03;485.67;;;451.00;;
22768;SDS011;13001;51.968;5.918;2023-05-10T04:04:30;479.02;;;444.88;;
22768;SDS011;13001;51.968;5.918;2023-05-10T04:06:57;466.48;;;433.27;;
22768;SDS011;13001;51.968;5.918;2023-05-10T04:09:25;477.23;;;442.77;;
22768;SDS011;13001;51.968;5.918;2023-05-10T04:11:52;458.27;;;426.27;;
22768;SDS011;13001;51.968;5.918;2023-05-10T04:14:20;450.75;;;419.20;;
22768;SDS011;13001;51.968;5.918;2023-05-10T04:16:47;451.93;;;420.15;;
22768;SDS011;13001;51.968;5.918;2023-05-10T04:19:14;452.32;;;420.15;;
22768;SDS011;13001;51.968;5.918;2023-05-10T04:21:41;443.50;;;412.57;;
22768;SDS011;13001;51.968;5.918;2023-05-10T04:24:09;447.65;;;416.40;;
22768;SDS011;13001;51.968;5.918;2023-05-10T04:26:36;433.38;;;402.88;;
22768;SDS011;13001;51.968;5.918;2023-05-10T04:29:03;416.27;;;387.23;;
22768;SDS011;13001;51.968;5.918;2023-05-10T04:31:30;410.30;;;381.70;;
22768;SDS011;13001;51.968;5.918;2023-05-10T04:33:58;400.32;;;372.20;;
22768;SDS011;13001;51.968;5.918;2023-05-10T04:36:25;411.17;;;382.80;;
22768;SDS011;13001;51.968;5.918;2023-05-10T04:38:53;403.25;;;374.92;;
22768;SDS011;13001;51.968;5.918;2023-05-10T04:41:21;396.23;;;368.80;;
22768;SDS011;13001;51.968;5.918;2023-05-10T04:43:48;392.70;;;365.50;;
22768;SDS011;13001;51.968;5.918;2023-05-10T04:46:15;391.40;;;363.87;;
22768;SDS011;13001;51.968;5.918;2023-05-10T04:48:43;394.02;;;366.55;;
22768;SDS011;13001;51.968;5.918;2023-05-10T04:51:10;385.85;;;359.30;;
22768;SDS011;13001;51.968;5.918;2023-05-10T04:53:38;399.47;;;371.17;;
22768;SDS011;13001;51.968;5.918;2023-05-10T04:56:06;387.60;;;359.77;;
22768;SDS011;13001;51.968;5.918;2023-05-10T04:58:33;390.18;;;363.12;;
22768;SDS011;13001;51.968;5.918;2023-05-10T05:01:06;388.80;;;361.68;;
22768;SDS011;13001;51.968;5.918;2023-05-10T05:03:37;382.40;;;355.87;;
22768;SDS011;13001;51.968;5.918;2023-05-10T05:06:04;388.93;;;361.60;;
22768;SDS011;13001;51.968;5.918;2023-05-10T05:08:31;394.35;;;367.10;;
22768;SDS011;13001;51.968;5.918;2023-05-10T05:10:59;391.98;;;364.45;;
22768;SDS011;13001;51.968;5.918;2023-05-10T05:13:26;381.33;;;354.47;;
22768;SDS011;13001;51.968;5.918;2023-05-10T05:15:53;385.17;;;358.87;;
22768;SDS011;13001;51.968;5.918;2023-05-10T05:18:20;395.57;;;368.57;;
22768;SDS011;13001;51.968;5.918;2023-05-10T05:20:48;392.40;;;365.52;;
22768;SDS011;13001;51.968;5.918;2023-05-10T05:23:15;376.77;;;350.22;;
22768;SDS011;13001;51.968;5.918;2023-05-10T05:25:42;390.12;;;362.68;;
22768;SDS011;13001;51.968;5.918;2023-05-10T05:28:10;401.95;;;373.70;;
22768;SDS011;13001;51.968;5.918;2023-05-10T05:30:37;392.37;;;365.35;;
22768;SDS011;13001;51.968;5.918;2023-05-10T05:33:04;398.48;;;371.18;;
22768;SDS011;13001;51.968;5.918;2023-05-10T05:35:31;374.67;;;349.32;;
22768;SDS011;13001;51.968;5.918;2023-05-10T05:37:59;379.25;;;353.00;;
22768;SDS011;13001;51.968;5.918;2023-05-10T05:40:26;382.98;;;356.50;;
22768;SDS011;13001;51.968;5.918;2023-05-10T05:42:53;367.57;;;342.15;;
22768;SDS011;13001;51.968;5.918;2023-05-10T05:45:20;379.13;;;353.20;;
22768;SDS011;13001;51.968;5.918;2023-05-10T05:47:48;379.10;;;353.12;;
22768;SDS011;13001;51.968;5.918;2023-05-10T05:50:15;386.07;;;359.83;;
22768;SDS011;13001;51.968;5.918;2023-05-10T05:52:42;379.93;;;354.13;;
22768;SDS011;13001;51.968;5.918;2023-05-10T05:55:10;387.35;;;360.57;;
22768;SDS011;13001;51.968;5.918;2023-05-10T05:57:39;392.83;;;366.10;;
22768;SDS011;13001;51.968;5.918;2023-05-10T06:00:06;369.98;;;344.77;;
22768;SDS011;13001;51.968;5.918;2023-05-10T06:02:33;398.68;;;371.70;;
22768;SDS011;13001;51.968;5.918;2023-05-10T06:05:01;426.80;;;397.57;;
22768;SDS011;13001;51.968;5.918;2023-05-10T06:07:28;450.42;;;419.13;;
22768;SDS011;13001;51.968;5.918;2023-05-10T06:09:55;454.83;;;423.60;;
22768;SDS011;13001;51.968;5.918;2023-05-10T06:12:23;453.18;;;421.25;;
22768;SDS011;13001;51.968;5.918;2023-05-10T06:14:50;466.65;;;433.60;;
22768;SDS011;13001;51.968;5.918;2023-05-10T06:17:17;445.45;;;414.78;;
22768;SDS011;13001;51.968;5.918;2023-05-10T06:19:45;441.57;;;410.90;;
22768;SDS011;13001;51.968;5.918;2023-05-10T06:22:12;422.07;;;393.02;;
22768;SDS011;13001;51.968;5.918;2023-05-10T06:24:39;419.95;;;390.23;;
22768;SDS011;13001;51.968;5.918;2023-05-10T06:27:07;426.63;;;397.07;;
22768;SDS011;13001;51.968;5.918;2023-05-10T06:29:34;424.38;;;394.65;;
22768;SDS011;13001;51.968;5.918;2023-05-10T06:32:02;425.30;;;396.65;;
22768;SDS011;13001;51.968;5.918;2023-05-10T06:34:29;424.62;;;395.27;;
22768;SDS011;13001;51.968;5.918;2023-05-10T06:36:56;428.57;;;399.23;;
22768;SDS011;13001;51.968;5.918;2023-05-10T06:39:24;432.90;;;402.93;;
22768;SDS011;13001;51.968;5.918;2023-05-10T06:41:52;418.57;;;390.12;;
22768;SDS011;13001;51.968;5.918;2023-05-10T06:44:20;427.32;;;397.70;;
22768;SDS011;13001;51.968;5.918;2023-05-10T06:46:47;409.98;;;382.68;;
22768;SDS011;13001;51.968;5.918;2023-05-10T06:49:16;406.75;;;379.27;;
22768;SDS011;13001;51.968;5.918;2023-05-10T06:51:43;404.23;;;376.77;;
22768;SDS011;13001;51.968;5.918;2023-05-10T06:54:11;389.08;;;362.70;;
22768;SDS011;13001;51.968;5.918;2023-05-10T06:56:38;388.00;;;361.63;;
22768;SDS011;13001;51.968;5.918;2023-05-10T06:59:06;405.22;;;377.80;;
22768;SDS011;13001;51.968;5.918;2023-05-10T07:01:34;392.27;;;366.08;;
22768;SDS011;13001;51.968;5.918;2023-05-10T07:04:02;383.70;;;357.60;;
22768;SDS011;13001;51.968;5.918;2023-05-10T07:06:31;394.93;;;368.35;;
22768;SDS011;13001;51.968;5.918;2023-05-10T07:08:58;385.25;;;358.73;;
22768;SDS011;13001;51.968;5.918;2023-05-10T07:11:25;375.60;;;350.60;;
22768;SDS011;13001;51.968;5.918;2023-05-10T07:13:53;369.13;;;344.15;;
22768;SDS011;13001;51.968;5.918;2023-05-10T07:16:20;370.17;;;345.50;;
22768;SDS011;13001;51.968;5.918;2023-05-10T07:18:47;373.40;;;347.95;;
22768;SDS011;13001;51.968;5.918;2023-05-10T07:21:16;381.65;;;355.40;;
22768;SDS011;13001;51.968;5.918;2023-05-10T07:23:45;390.95;;;363.95;;
22768;SDS011;13001;51.968;5.918;2023-05-10T07:26:12;406.55;;;378.23;;
22768;SDS011;13001;51.968;5.918;2023-05-10T07:28:41;406.90;;;378.77;;
22768;SDS011;13001;51.968;5.918;2023-05-10T07:31:08;417.63;;;388.62;;
22768;SDS011;13001;51.968;5.918;2023-05-10T07:33:35;404.98;;;376.60;;
22768;SDS011;13001;51.968;5.918;2023-05-10T07:36:03;399.52;;;371.77;;
22768;SDS011;13001;51.968;5.918;2023-05-10T07:38:30;412.77;;;384.03;;
22768;SDS011;13001;51.968;5.918;2023-05-10T07:40:57;401.07;;;373.30;;
22768;SDS011;13001;51.968;5.918;2023-05-10T07:43:24;397.20;;;369.35;;
22768;SDS011;13001;51.968;5.918;2023-05-10T07:45:52;405.98;;;377.32;;
22768;SDS011;13001;51.968;5.918;2023-05-10T07:48:19;399.98;;;371.32;;
22768;SDS011;13001;51.968;5.918;2023-05-10T07:50:46;402.25;;;373.57;;
22768;SDS011;13001;51.968;5.918;2023-05-10T07:53:13;436.10;;;404.12;;
22768;SDS011;13001;51.968;5.918;2023-05-10T07:55:41;450.20;;;417.63;;
22768;SDS011;13001;51.968;5.918;2023-05-10T07:58:08;446.05;;;415.17;;
22768;SDS011;13001;51.968;5.918;2023-05-10T08:00:35;441.68;;;411.32;;
22768;SDS011;13001;51.968;5.918;2023-05-10T08:03:04;426.93;;;397.98;;
22768;SDS011;13001;51.968;5.918;2023-05-10T08:05:32;421.95;;;392.95;;
22768;SDS011;13001;51.968;5.918;2023-05-10T08:07:59;430.85;;;401.55;;
22768;SDS011;13001;51.968;5.918;2023-05-10T08:10:26;422.27;;;392.70;;
22768;SDS011;13001;51.968;5.918;2023-05-10T08:12:53;413.40;;;384.18;;
22768;SDS011;13001;51.968;5.918;2023-05-10T08:15:21;339.32;;;316.35;;
22768;SDS011;13001;51.968;5.918;2023-05-10T08:17:48;327.70;;;304.43;;
22768;SDS011;13001;51.968;5.918;2023-05-10T08:20:15;522.98;;;483.48;;
22768;SDS011;13001;51.968;5.918;2023-05-10T08:22:45;741.02;;;678.80;;
22768;SDS011;13001;51.968;5.918;2023-05-10T08:25:12;824.53;;;753.70;;
22768;SDS011;13001;51.968;5.918;2023-05-10T08:27:40;854.90;;;780.37;;
22768;SDS011;13001;51.968;5.918;2023-05-10T08:30:07;871.03;;;796.90;;
22768;SDS011;13001;51.968;5.918;2023-05-10T08:32:35;855.15;;;781.30;;
22768;SDS011;13001;51.968;5.918;2023-05-10T08:35:04;771.60;;;705.75;;
22768;SDS011;13001;51.968;5.918;2023-05-10T08:37:31;662.90;;;606.15;;
22768;SDS011;13001;51.968;5.918;2023-05-10T08:39:59;815.80;;;748.42;;
22768;SDS011;13001;51.968;5.918;2023-05-10T08:42:27;834.60;;;765.98;;
22768;SDS011;13001;51.968;5.918;2023-05-10T08:44:57;816.60;;;754.62;;
22768;SDS011;13001;51.968;5.918;2023-05-10T08:47:24;782.08;;;720.83;;
22768;SDS011;13001;51.968;5.918;2023-05-10T08:49:52;820.07;;;754.10;;
22768;SDS011;13001;51.968;5.918;2023-05-10T08:52:20;782.23;;;723.78;;
22768;SDS011;13001;51.968;5.918;2023-05-10T08:54:49;727.20;;;671.58;;
22768;SDS011;13001;51.968;5.918;2023-05-10T08:57:16;750.75;;;692.85;;
22768;SDS011;13001;51.968;5.918;2023-05-10T08:59:43;796.17;;;732.87;;
22768;SDS011;13001;51.968;5.918;2023-05-10T09:02:11;827.00;;;761.23;;
22768;SDS011;13001;51.968;5.918;2023-05-10T09:04:39;911.35;;;837.92;;
22768;SDS011;13001;51.968;5.918;2023-05-10T09:07:07;874.30;;;804.87;;
22768;SDS011;13001;51.968;5.918;2023-05-10T09:09:34;768.27;;;707.20;;
22768;SDS011;13001;51.968;5.918;2023-05-10T09:12:02;862.03;;;793.42;;
22768;SDS011;13001;51.968;5.918;2023-05-10T09:14:29;870.30;;;800.47;;
22768;SDS011;13001;51.968;5.918;2023-05-10T09:16:57;784.20;;;721.50;;
22768;SDS011;13001;51.968;5.918;2023-05-10T09:19:24;791.85;;;732.27;;
22768;SDS011;13001;51.968;5.918;2023-05-10T09:21:52;837.33;;;770.23;;
22768;SDS011;13001;51.968;5.918;2023-05-10T09:24:19;929.10;;;849.17;;
22768;SDS011;13001;51.968;5.918;2023-05-10T09:26:46;859.85;;;787.05;;
22768;SDS011;13001;51.968;5.918;2023-05-10T09:29:16;879.35;;;806.12;;
22768;SDS011;13001;51.968;5.918;2023-05-10T09:31:45;843.35;;;775.08;;
22768;SDS011;13001;51.968;5.918;2023-05-10T09:34:16;868.50;;;796.10;;
22768;SDS011;13001;51.968;5.918;2023-05-10T09:36:51;842.98;;;774.15;;
22768;SDS011;13001;51.968;5.918;2023-05-10T09:39:18;869.50;;;796.12;;
22768;SDS011;13001;51.968;5.918;2023-05-10T09:41:45;883.85;;;810.58;;
22768;SDS011;13001;51.968;5.918;2023-05-10T09:44:16;857.00;;;786.80;;
22768;SDS011;13001;51.968;5.918;2023-05-10T09:46:48;853.30;;;782.90;;
22768;SDS011;13001;51.968;5.918;2023-05-10T09:49:14;862.83;;;791.75;;
22768;SDS011;13001;51.968;5.918;2023-05-10T09:51:41;854.40;;;784.30;;
22768;SDS011;13001;51.968;5.918;2023-05-10T09:54:10;865.20;;;794.25;;
22768;SDS011;13001;51.968;5.918;2023-05-10T09:56:38;845.83;;;775.77;;
22768;SDS011;13001;51.968;5.918;2023-05-10T09:59:07;823.65;;;757.60;;
22768;SDS011;13001;51.968;5.918;2023-05-10T10:01:35;835.97;;;769.70;;
22768;SDS011;13001;51.968;5.918;2023-05-10T10:04:03;845.75;;;776.77;;
22768;SDS011;13001;51.968;5.918;2023-05-10T10:06:34;857.02;;;786.73;;
22768;SDS011;13001;51.968;5.918;2023-05-10T10:08:59;847.27;;;779.30;;
22768;SDS011;13001;51.968;5.918;2023-05-10T10:11:26;843.70;;;776.35;;
22768;SDS011;13001;51.968;5.918;2023-05-10T10:13:54;867.07;;;794.35;;
22768;SDS011;13001;51.968;5.918;2023-05-10T10:16:21;864.83;;;793.00;;
22768;SDS011;13001;51.968;5.918;2023-05-10T10:18:48;857.25;;;786.58;;
22768;SDS011;13001;51.968;5.918;2023-05-10T10:21:17;881.80;;;809.17;;
22768;SDS011;13001;51.968;5.918;2023-05-10T10:23:44;887.63;;;815.15;;
22768;SDS011;13001;51.968;5.918;2023-05-10T10:26:13;862.72;;;792.98;;
22768;SDS011;13001;51.968;5.918;2023-05-10T10:28:44;869.28;;;798.40;;
22768;SDS011;13001;51.968;5.918;2023-05-10T10:31:23;858.65;;;789.50;;
22768;SDS011;13001;51.968;5.918;2023-05-10T10:33:51;864.60;;;794.67;;
22768;SDS011;13001;51.968;5.918;2023-05-10T10:36:16;876.75;;;805.72;;
22768;SDS011;13001;51.968;5.918;2023-05-10T10:41:28;860.33;;;793.77;;
22768;SDS011;13001;51.968;5.918;2023-05-10T10:49:21;761.08;;;702.95;;
22768;SDS011;13001;51.968;5.918;2023-05-10T10:54:34;742.98;;;686.75;;
22768;SDS011;13001;51.968;5.918;2023-05-10T10:57:11;746.45;;;690.25;;
22768;SDS011;13001;51.968;5.918;2023-05-10T10:59:42;745.92;;;689.45;;
22768;SDS011;13001;51.968;5.918;2023-05-10T11:02:23;770.03;;;710.67;;
22768;SDS011;13001;51.968;5.918;2023-05-10T11:04:42;746.10;;;688.40;;
22768;SDS011;13001;51.968;5.918;2023-05-10T11:07:18;733.48;;;677.78;;
22768;SDS011;13001;51.968;5.918;2023-05-10T11:09:51;745.75;;;689.02;;
22768;SDS011;13001;51.968;5.918;2023-05-10T11:12:15;732.75;;;677.42;;
22768;SDS011;13001;51.968;5.918;2023-05-10T11:14:42;701.82;;;648.25;;
22768;SDS011;13001;51.968;5.918;2023-05-10T11:17:31;661.88;;;610.80;;
22768;SDS011;13001;51.968;5.918;2023-05-10T11:19:38;635.42;;;585.52;;
22768;SDS011;13001;51.968;5.918;2023-05-10T11:22:13;690.20;;;636.60;;
22768;SDS011;13001;51.968;5.918;2023-05-10T11:24:41;639.37;;;588.83;;
22768;SDS011;13001;51.968;5.918;2023-05-10T11:27:09;722.05;;;665.45;;
22768;SDS011;13001;51.968;5.918;2023-05-10T11:29:38;741.97;;;683.67;;
22768;SDS011;13001;51.968;5.918;2023-05-10T11:32:05;889.43;;;819.57;;
22768;SDS011;13001;51.968;5.918;2023-05-10T11:34:34;842.68;;;776.80;;
22768;SDS011;13001;51.968;5.918;2023-05-10T11:37:01;901.95;;;829.85;;
22768;SDS011;13001;51.968;5.918;2023-05-10T11:39:29;950.70;;;872.90;;
22768;SDS011;13001;51.968;5.918;2023-05-10T11:41:57;876.02;;;806.93;;
22768;SDS011;13001;51.968;5.918;2023-05-10T11:44:33;909.70;;;836.65;;
22768;SDS011;13001;51.968;5.918;2023-05-10T11:46:53;950.83;;;872.77;;
22768;SDS011;13001;51.968;5.918;2023-05-10T11:49:20;958.40;;;880.70;;
22768;SDS011;13001;51.968;5.918;2023-05-10T11:51:49;968.95;;;890.32;;
22768;SDS011;13001;51.968;5.918;2023-05-10T11:54:16;941.08;;;864.17;;
22768;SDS011;13001;51.968;5.918;2023-05-10T11:56:43;917.20;;;843.17;;
22768;SDS011;13001;51.968;5.918;2023-05-10T11:59:13;975.10;;;893.97;;
22768;SDS011;13001;51.968;5.918;2023-05-10T12:01:41;991.95;;;907.53;;
22768;SDS011;13001;51.968;5.918;2023-05-10T12:04:08;957.38;;;877.95;;
22768;SDS011;13001;51.968;5.918;2023-05-10T12:06:37;958.10;;;879.33;;
22768;SDS011;13001;51.968;5.918;2023-05-10T12:09:08;955.00;;;876.47;;
22768;SDS011;13001;51.968;5.918;2023-05-10T12:11:39;930.80;;;854.67;;
22768;SDS011;13001;51.968;5.918;2023-05-10T12:14:08;930.67;;;854.42;;
22768;SDS011;13001;51.968;5.918;2023-05-10T12:16:37;970.47;;;889.27;;
22768;SDS011;13001;51.968;5.918;2023-05-10T12:19:04;979.30;;;896.93;;
22768;SDS011;13001;51.968;5.918;2023-05-10T12:21:32;964.50;;;883.73;;
22768;SDS011;13001;51.968;5.918;2023-05-10T12:24:00;981.23;;;899.15;;
22768;SDS011;13001;51.968;5.918;2023-05-10T12:26:28;968.75;;;888.23;;
22768;SDS011;13001;51.968;5.918;2023-05-10T12:29:11;970.80;;;890.65;;
22768;SDS011;13001;51.968;5.918;2023-05-10T12:31:24;986.05;;;902.92;;
22768;SDS011;13001;51.968;5.918;2023-05-10T12:33:51;1007.80;;;921.95;;
22768;SDS011;13001;51.968;5.918;2023-05-10T12:36:22;987.63;;;903.58;;
22768;SDS011;13001;51.968;5.918;2023-05-10T12:38:48;973.50;;;891.60;;
22768;SDS011;13001;51.968;5.918;2023-05-10T12:41:16;992.23;;;907.97;;
22768;SDS011;13001;51.968;5.918;2023-05-10T12:43:44;991.73;;;907.37;;
22768;SDS011;13001;51.968;5.918;2023-05-10T12:46:16;978.55;;;895.70;;
22768;SDS011;13001;51.968;5.918;2023-05-10T12:48:44;995.73;;;911.17;;
22768;SDS011;13001;51.968;5.918;2023-05-10T12:51:12;976.70;;;895.07;;
22768;SDS011;13001;51.968;5.918;2023-05-10T12:53:41;996.85;;;912.37;;
22768;SDS011;13001;51.968;5.918;2023-05-10T12:56:09;975.57;;;893.93;;
22768;SDS011;13001;51.968;5.918;2023-05-10T12:58:36;977.10;;;894.82;;
22768;SDS011;13001;51.968;5.918;2023-05-10T13:01:04;959.88;;;879.92;;
22768;SDS011;13001;51.968;5.918;2023-05-10T13:03:32;969.52;;;889.15;;
22768;SDS011;13001;51.968;5.918;2023-05-10T13:05:59;986.28;;;903.33;;
22768;SDS011;13001;51.968;5.918;2023-05-10T13:08:26;971.05;;;890.02;;
22768;SDS011;13001;51.968;5.918;2023-05-10T13:10:55;951.80;;;873.95;;
22768;SDS011;13001;51.968;5.918;2023-05-10T13:13:22;951.85;;;874.65;;
22768;SDS011;13001;51.968;5.918;2023-05-10T13:15:50;909.22;;;836.28;;
22768;SDS011;13001;51.968;5.918;2023-05-10T13:18:17;922.43;;;848.20;;
22768;SDS011;13001;51.968;5.918;2023-05-10T13:20:44;934.73;;;859.20;;
22768;SDS011;13001;51.968;5.918;2023-05-10T13:23:11;927.57;;;852.10;;
22768;SDS011;13001;51.968;5.918;2023-05-10T13:25:39;936.00;;;859.80;;
22768;SDS011;13001;51.968;5.918;2023-05-10T13:28:06;969.17;;;889.53;;
22768;SDS011;13001;51.968;5.918;2023-05-10T13:30:33;952.40;;;874.40;;
22768;SDS011;13001;51.968;5.918;2023-05-10T13:33:01;942.23;;;865.40;;
22768;SDS011;13001;51.968;5.918;2023-05-10T13:35:28;943.97;;;867.37;;
22768;SDS011;13001;51.968;5.918;2023-05-10T13:37:55;929.97;;;854.30;;
22768;SDS011;13001;51.968;5.918;2023-05-10T13:40:23;941.27;;;865.10;;
22768;SDS011;13001;51.968;5.918;2023-05-10T13:42:51;899.85;;;826.67;;
22768;SDS011;13001;51.968;5.918;2023-05-10T13:45:19;899.70;;;825.73;;
22768;SDS011;13001;51.968;5.918;2023-05-10T13:47:46;912.95;;;839.63;;
22768;SDS011;13001;51.968;5.918;2023-05-10T13:50:13;794.42;;;732.45;;
22768;SDS011;13001;51.968;5.918;2023-05-10T13:52:41;632.90;;;582.98;;
22768;SDS011;13001;51.968;5.918;2023-05-10T13:55:08;587.85;;;541.17;;
22768;SDS011;13001;51.968;5.918;2023-05-10T13:57:35;588.83;;;540.10;;
22768;SDS011;13001;51.968;5.918;2023-05-10T14:00:03;622.10;;;569.62;;
22768;SDS011;13001;51.968;5.918;2023-05-10T14:02:30;613.33;;;561.83;;
22768;SDS011;13001;51.968;5.918;2023-05-10T14:04:58;631.58;;;578.60;;
22768;SDS011;13001;51.968;5.918;2023-05-10T14:07:25;637.05;;;583.02;;
22768;SDS011;13001;51.968;5.918;2023-05-10T14:09:52;645.33;;;591.42;;
22768;SDS011;13001;51.968;5.918;2023-05-10T14:12:19;662.90;;;609.17;;
22768;SDS011;13001;51.968;5.918;2023-05-10T14:14:47;669.58;;;616.20;;
22768;SDS011;13001;51.968;5.918;2023-05-10T14:17:14;684.15;;;628.83;;
22768;SDS011;13001;51.968;5.918;2023-05-10T14:19:41;827.80;;;757.98;;
22768;SDS011;13001;51.968;5.918;2023-05-10T14:22:09;723.53;;;666.30;;